sensor_id;sensor_type;location;lat;lon;timestamp;temperature;humidity
71082;SHT31;58740;50.672;18.690;2022-12-18T00:01:28;-2.94;82.00
71082;SHT31;58740;50.672;18.690;2022-12-18T00:04:06;-2.97;82.00
71082;SHT31;58740;50.672;18.690;2022-12-18T00:06:40;-2.97;82.08
71082;SHT31;58740;50.672;18.690;2022-12-18T00:09:08;-2.97;82.03
71082;SHT31;58740;50.672;18.690;2022-12-18T00:11:36;-2.96;82.06
71082;SHT31;58740;50.672;18.690;2022-12-18T00:14:03;-2.92;82.06
71082;SHT31;58740;50.672;18.690;2022-12-18T00:16:31;-2.88;82.00
71082;SHT31;58740;50.672;18.690;2022-12-18T00:19:03;-2.84;81.96
71082;SHT31;58740;50.672;18.690;2022-12-18T00:21:32;-2.82;81.84
71082;SHT31;58740;50.672;18.690;2022-12-18T00:24:01;-2.81;81.79
71082;SHT31;58740;50.672;18.690;2022-12-18T00:26:30;-2.83;81.76
71082;SHT31;58740;50.672;18.690;2022-12-18T00:29:04;-2.82;81.70
71082;SHT31;58740;50.672;18.690;2022-12-18T00:31:41;-2.84;81.66
71082;SHT31;58740;50.672;18.690;2022-12-18T00:34:11;-2.85;81.70
71082;SHT31;58740;50.672;18.690;2022-12-18T00:36:40;-2.86;81.71
71082;SHT31;58740;50.672;18.690;2022-12-18T00:39:09;-2.88;81.58
71082;SHT31;58740;50.672;18.690;2022-12-18T00:41:39;-2.89;81.62
71082;SHT31;58740;50.672;18.690;2022-12-18T00:44:25;-2.88;81.58
71082;SHT31;58740;50.672;18.690;2022-12-18T00:46:53;-2.86;81.56
71082;SHT31;58740;50.672;18.690;2022-12-18T00:49:20;-2.83;81.49
71082;SHT31;58740;50.672;18.690;2022-12-18T00:51:48;-2.81;81.49
71082;SHT31;58740;50.672;18.690;2022-12-18T00:54:16;-2.77;81.30
71082;SHT31;58740;50.672;18.690;2022-12-18T00:56:45;-2.77;81.39
71082;SHT31;58740;50.672;18.690;2022-12-18T00:59:17;-2.76;81.36
71082;SHT31;58740;50.672;18.690;2022-12-18T01:01:45;-2.78;81.25
71082;SHT31;58740;50.672;18.690;2022-12-18T01:04:14;-2.78;81.30
71082;SHT31;58740;50.672;18.690;2022-12-18T01:06:42;-2.79;81.36
71082;SHT31;58740;50.672;18.690;2022-12-18T01:09:12;-2.81;81.31
71082;SHT31;58740;50.672;18.690;2022-12-18T01:11:40;-2.83;81.24
71082;SHT31;58740;50.672;18.690;2022-12-18T01:14:08;-2.86;81.25
71082;SHT31;58740;50.672;18.690;2022-12-18T01:16:37;-2.85;81.36
71082;SHT31;58740;50.672;18.690;2022-12-18T01:19:04;-2.81;81.31
71082;SHT31;58740;50.672;18.690;2022-12-18T01:21:33;-2.77;81.17
71082;SHT31;58740;50.672;18.690;2022-12-18T01:24:00;-2.74;81.14
71082;SHT31;58740;50.672;18.690;2022-12-18T01:26:29;-2.74;80.95
71082;SHT31;58740;50.672;18.690;2022-12-18T01:28:57;-2.76;81.00
71082;SHT31;58740;50.672;18.690;2022-12-18T01:31:26;-2.75;81.12
71082;SHT31;58740;50.672;18.690;2022-12-18T01:33:59;-2.77;81.05
71082;SHT31;58740;50.672;18.690;2022-12-18T01:36:30;-2.80;80.96
71082;SHT31;58740;50.672;18.690;2022-12-18T01:39:02;-2.86;80.93
71082;SHT31;58740;50.672;18.690;2022-12-18T01:41:33;-2.91;81.02
71082;SHT31;58740;50.672;18.690;2022-12-18T01:50:36;-2.95;81.32
71082;SHT31;58740;50.672;18.690;2022-12-18T01:55:55;-2.90;81.16
71082;SHT31;58740;50.672;18.690;2022-12-18T02:01:06;-2.85;81.06
71082;SHT31;58740;50.672;18.690;2022-12-18T02:03:35;-2.87;80.99
71082;SHT31;58740;50.672;18.690;2022-12-18T02:08:43;-2.88;81.05
71082;SHT31;58740;50.672;18.690;2022-12-18T02:17:50;-2.94;81.03
71082;SHT31;58740;50.672;18.690;2022-12-18T02:20:28;-2.96;81.09
71082;SHT31;58740;50.672;18.690;2022-12-18T02:28:42;-3.00;81.01
71082;SHT31;58740;50.672;18.690;2022-12-18T02:31:23;-2.98;80.98
71082;SHT31;58740;50.672;18.690;2022-12-18T02:33:58;-2.96;80.93
71082;SHT31;58740;50.672;18.690;2022-12-18T02:36:31;-2.96;80.76
71082;SHT31;58740;50.672;18.690;2022-12-18T02:39:03;-2.97;80.72
71082;SHT31;58740;50.672;18.690;2022-12-18T02:41:36;-2.97;80.96
71082;SHT31;58740;50.672;18.690;2022-12-18T02:44:10;-2.96;80.94
71082;SHT31;58740;50.672;18.690;2022-12-18T02:46:41;-2.97;80.97
71082;SHT31;58740;50.672;18.690;2022-12-18T02:49:30;-2.99;80.99
71082;SHT31;58740;50.672;18.690;2022-12-18T03:03:34;-3.05;81.06
71082;SHT31;58740;50.672;18.690;2022-12-18T03:06:18;-3.03;81.02
71082;SHT31;58740;50.672;18.690;2022-12-18T03:08:56;-2.99;80.93
71082;SHT31;58740;50.672;18.690;2022-12-18T03:11:40;-3.00;80.69
71082;SHT31;58740;50.672;18.690;2022-12-18T03:14:32;-3.03;80.73
71082;SHT31;58740;50.672;18.690;2022-12-18T03:17:05;-3.06;80.71
71082;SHT31;58740;50.672;18.690;2022-12-18T03:19:42;-3.10;80.79
71082;SHT31;58740;50.672;18.690;2022-12-18T03:22:13;-3.11;80.80
71082;SHT31;58740;50.672;18.690;2022-12-18T03:24:44;-3.12;80.75
71082;SHT31;58740;50.672;18.690;2022-12-18T03:27:17;-3.15;80.79
71082;SHT31;58740;50.672;18.690;2022-12-18T03:29:54;-3.16;80.81
71082;SHT31;58740;50.672;18.690;2022-12-18T03:32:42;-3.15;80.79
71082;SHT31;58740;50.672;18.690;2022-12-18T03:35:26;-3.12;80.77
71082;SHT31;58740;50.672;18.690;2022-12-18T03:38:00;-3.11;80.83
71082;SHT31;58740;50.672;18.690;2022-12-18T03:40:40;-3.09;80.82
71082;SHT31;58740;50.672;18.690;2022-12-18T03:49:19;-3.06;80.74
71082;SHT31;58740;50.672;18.690;2022-12-18T03:52:26;-3.09;80.68
71082;SHT31;58740;50.672;18.690;2022-12-18T03:55:00;-3.14;80.65
71082;SHT31;58740;50.672;18.690;2022-12-18T03:57:32;-3.18;80.55
71082;SHT31;58740;50.672;18.690;2022-12-18T04:00:22;-3.22;80.56
71082;SHT31;58740;50.672;18.690;2022-12-18T04:02:50;-3.24;80.72
71082;SHT31;58740;50.672;18.690;2022-12-18T04:05:21;-3.23;80.78
71082;SHT31;58740;50.672;18.690;2022-12-18T04:07:53;-3.21;80.72
71082;SHT31;58740;50.672;18.690;2022-12-18T04:10:23;-3.21;80.70
71082;SHT31;58740;50.672;18.690;2022-12-18T04:12:51;-3.20;80.68
71082;SHT31;58740;50.672;18.690;2022-12-18T04:15:24;-3.18;80.69
71082;SHT31;58740;50.672;18.690;2022-12-18T04:17:52;-3.19;80.70
71082;SHT31;58740;50.672;18.690;2022-12-18T04:20:20;-3.19;80.68
71082;SHT31;58740;50.672;18.690;2022-12-18T04:22:47;-3.20;80.65
71082;SHT31;58740;50.672;18.690;2022-12-18T04:25:15;-3.22;80.69
71082;SHT31;58740;50.672;18.690;2022-12-18T04:27:43;-3.22;80.79
71082;SHT31;58740;50.672;18.690;2022-12-18T04:30:10;-3.24;80.74
71082;SHT31;58740;50.672;18.690;2022-12-18T04:32:39;-3.24;80.74
71082;SHT31;58740;50.672;18.690;2022-12-18T04:35:08;-3.26;80.62
71082;SHT31;58740;50.672;18.690;2022-12-18T04:37:37;-3.28;80.59
71082;SHT31;58740;50.672;18.690;2022-12-18T04:40:05;-3.30;80.52
71082;SHT31;58740;50.672;18.690;2022-12-18T04:42:34;-3.33;80.49
71082;SHT31;58740;50.672;18.690;2022-12-18T04:45:02;-3.32;80.58
71082;SHT31;58740;50.672;18.690;2022-12-18T04:47:30;-3.30;80.41
71082;SHT31;58740;50.672;18.690;2022-12-18T04:49:58;-3.28;80.45
71082;SHT31;58740;50.672;18.690;2022-12-18T04:52:26;-3.25;80.46
71082;SHT31;58740;50.672;18.690;2022-12-18T04:54:53;-3.24;80.37
71082;SHT31;58740;50.672;18.690;2022-12-18T04:57:21;-3.22;80.40
71082;SHT31;58740;50.672;18.690;2022-12-18T04:59:49;-3.23;80.44
71082;SHT31;58740;50.672;18.690;2022-12-18T05:02:16;-3.25;80.22
71082;SHT31;58740;50.672;18.690;2022-12-18T05:04:44;-3.31;80.20
71082;SHT31;58740;50.672;18.690;2022-12-18T05:07:12;-3.35;80.30
71082;SHT31;58740;50.672;18.690;2022-12-18T05:09:40;-3.41;80.34
71082;SHT31;58740;50.672;18.690;2022-12-18T05:12:08;-3.45;80.57
71082;SHT31;58740;50.672;18.690;2022-12-18T05:14:35;-3.47;80.54
71082;SHT31;58740;50.672;18.690;2022-12-18T05:17:03;-3.48;80.54
71082;SHT31;58740;50.672;18.690;2022-12-18T05:19:31;-3.47;80.61
71082;SHT31;58740;50.672;18.690;2022-12-18T05:21:59;-3.45;80.66
71082;SHT31;58740;50.672;18.690;2022-12-18T05:24:27;-3.41;80.58
71082;SHT31;58740;50.672;18.690;2022-12-18T05:26:54;-3.40;80.59
71082;SHT31;58740;50.672;18.690;2022-12-18T05:29:22;-3.37;80.52
71082;SHT31;58740;50.672;18.690;2022-12-18T05:31:50;-3.35;80.54
71082;SHT31;58740;50.672;18.690;2022-12-18T05:34:18;-3.34;80.52
71082;SHT31;58740;50.672;18.690;2022-12-18T05:36:46;-3.36;80.54
71082;SHT31;58740;50.672;18.690;2022-12-18T05:39:13;-3.38;80.58
71082;SHT31;58740;50.672;18.690;2022-12-18T05:41:41;-3.43;80.53
71082;SHT31;58740;50.672;18.690;2022-12-18T05:44:09;-3.47;80.51
71082;SHT31;58740;50.672;18.690;2022-12-18T05:46:37;-3.50;80.50
71082;SHT31;58740;50.672;18.690;2022-12-18T05:49:05;-3.54;80.54
71082;SHT31;58740;50.672;18.690;2022-12-18T05:51:33;-3.55;80.69
71082;SHT31;58740;50.672;18.690;2022-12-18T05:54:00;-3.55;80.85
71082;SHT31;58740;50.672;18.690;2022-12-18T05:56:28;-3.56;80.78
71082;SHT31;58740;50.672;18.690;2022-12-18T05:58:55;-3.54;80.86
71082;SHT31;58740;50.672;18.690;2022-12-18T06:01:24;-3.51;80.86
71082;SHT31;58740;50.672;18.690;2022-12-18T06:03:54;-3.47;80.72
71082;SHT31;58740;50.672;18.690;2022-12-18T06:06:24;-3.47;80.61
71082;SHT31;58740;50.672;18.690;2022-12-18T06:08:54;-3.48;80.52
71082;SHT31;58740;50.672;18.690;2022-12-18T06:11:25;-3.49;80.57
71082;SHT31;58740;50.672;18.690;2022-12-18T06:13:54;-3.51;80.62
71082;SHT31;58740;50.672;18.690;2022-12-18T06:16:29;-3.54;80.71
71082;SHT31;58740;50.672;18.690;2022-12-18T06:19:01;-3.57;80.80
71082;SHT31;58740;50.672;18.690;2022-12-18T06:21:32;-3.59;80.84
71082;SHT31;58740;50.672;18.690;2022-12-18T06:24:02;-3.63;80.78
71082;SHT31;58740;50.672;18.690;2022-12-18T06:26:30;-3.67;80.70
71082;SHT31;58740;50.672;18.690;2022-12-18T06:28:58;-3.69;80.84
71082;SHT31;58740;50.672;18.690;2022-12-18T06:31:26;-3.69;81.00
71082;SHT31;58740;50.672;18.690;2022-12-18T06:33:54;-3.67;80.96
71082;SHT31;58740;50.672;18.690;2022-12-18T06:36:21;-3.64;80.81
71082;SHT31;58740;50.672;18.690;2022-12-18T06:38:49;-3.62;80.74
71082;SHT31;58740;50.672;18.690;2022-12-18T06:41:18;-3.60;80.83
71082;SHT31;58740;50.672;18.690;2022-12-18T06:43:48;-3.58;80.79
71082;SHT31;58740;50.672;18.690;2022-12-18T06:46:16;-3.59;80.53
71082;SHT31;58740;50.672;18.690;2022-12-18T06:48:48;-3.60;80.53
71082;SHT31;58740;50.672;18.690;2022-12-18T06:51:18;-3.62;80.48
71082;SHT31;58740;50.672;18.690;2022-12-18T06:53:47;-3.64;80.36
71082;SHT31;58740;50.672;18.690;2022-12-18T06:56:16;-3.66;80.44
71082;SHT31;58740;50.672;18.690;2022-12-18T06:58:44;-3.68;80.46
71082;SHT31;58740;50.672;18.690;2022-12-18T07:01:12;-3.70;80.30
71082;SHT31;58740;50.672;18.690;2022-12-18T07:03:41;-3.73;80.23
71082;SHT31;58740;50.672;18.690;2022-12-18T07:06:15;-3.77;80.30
71082;SHT31;58740;50.672;18.690;2022-12-18T07:08:46;-3.78;80.40
71082;SHT31;58740;50.672;18.690;2022-12-18T07:11:15;-3.77;80.46
71082;SHT31;58740;50.672;18.690;2022-12-18T07:13:45;-3.76;80.34
71082;SHT31;58740;50.672;18.690;2022-12-18T07:16:14;-3.75;80.31
71082;SHT31;58740;50.672;18.690;2022-12-18T07:18:52;-3.70;80.45
71082;SHT31;58740;50.672;18.690;2022-12-18T07:21:23;-3.67;80.28
71082;SHT31;58740;50.672;18.690;2022-12-18T07:23:52;-3.66;80.33
71082;SHT31;58740;50.672;18.690;2022-12-18T07:26:20;-3.65;80.34
71082;SHT31;58740;50.672;18.690;2022-12-18T07:28:49;-3.63;80.32
71082;SHT31;58740;50.672;18.690;2022-12-18T07:31:19;-3.62;80.40
71082;SHT31;58740;50.672;18.690;2022-12-18T07:33:49;-3.63;80.39
71082;SHT31;58740;50.672;18.690;2022-12-18T07:36:18;-3.64;80.35
71082;SHT31;58740;50.672;18.690;2022-12-18T07:38:47;-3.64;80.22
71082;SHT31;58740;50.672;18.690;2022-12-18T07:41:16;-3.66;80.10
71082;SHT31;58740;50.672;18.690;2022-12-18T07:43:46;-3.67;80.22
71082;SHT31;58740;50.672;18.690;2022-12-18T07:46:14;-3.67;80.27
71082;SHT31;58740;50.672;18.690;2022-12-18T07:48:43;-3.65;80.33
71082;SHT31;58740;50.672;18.690;2022-12-18T07:51:17;-3.61;80.29
71082;SHT31;58740;50.672;18.690;2022-12-18T07:53:46;-3.57;80.05
71082;SHT31;58740;50.672;18.690;2022-12-18T07:56:19;-3.53;80.03
71082;SHT31;58740;50.672;18.690;2022-12-18T07:58:56;-3.47;79.94
71082;SHT31;58740;50.672;18.690;2022-12-18T08:01:26;-3.43;79.76
71082;SHT31;58740;50.672;18.690;2022-12-18T08:03:55;-3.40;79.76
71082;SHT31;58740;50.672;18.690;2022-12-18T08:06:22;-3.40;79.76
71082;SHT31;58740;50.672;18.690;2022-12-18T08:08:52;-3.38;79.91
71082;SHT31;58740;50.672;18.690;2022-12-18T08:11:21;-3.40;79.38
71082;SHT31;58740;50.672;18.690;2022-12-18T08:13:52;-3.44;79.48
71082;SHT31;58740;50.672;18.690;2022-12-18T08:16:21;-3.45;79.77
71082;SHT31;58740;50.672;18.690;2022-12-18T08:18:51;-3.48;79.42
71082;SHT31;58740;50.672;18.690;2022-12-18T08:21:22;-3.49;79.57
71082;SHT31;58740;50.672;18.690;2022-12-18T08:23:54;-3.50;79.60
71082;SHT31;58740;50.672;18.690;2022-12-18T08:26:25;-3.50;79.45
71082;SHT31;58740;50.672;18.690;2022-12-18T08:28:56;-3.48;79.51
71082;SHT31;58740;50.672;18.690;2022-12-18T08:31:26;-3.46;79.56
71082;SHT31;58740;50.672;18.690;2022-12-18T08:33:57;-3.43;79.28
71082;SHT31;58740;50.672;18.690;2022-12-18T08:36:25;-3.38;79.62
71082;SHT31;58740;50.672;18.690;2022-12-18T08:38:53;-3.33;79.62
71082;SHT31;58740;50.672;18.690;2022-12-18T08:41:21;-3.29;79.62
71082;SHT31;58740;50.672;18.690;2022-12-18T08:43:49;-3.28;79.27
71082;SHT31;58740;50.672;18.690;2022-12-18T08:46:40;-3.27;79.21
71082;SHT31;58740;50.672;18.690;2022-12-18T08:49:10;-3.28;79.16
71082;SHT31;58740;50.672;18.690;2022-12-18T08:51:39;-3.32;79.19
71082;SHT31;58740;50.672;18.690;2022-12-18T08:54:12;-3.33;79.08
71082;SHT31;58740;50.672;18.690;2022-12-18T08:56:41;-3.36;79.04
71082;SHT31;58740;50.672;18.690;2022-12-18T08:59:08;-3.36;79.21
71082;SHT31;58740;50.672;18.690;2022-12-18T09:01:45;-3.37;79.15
71082;SHT31;58740;50.672;18.690;2022-12-18T09:04:14;-3.37;79.29
71082;SHT31;58740;50.672;18.690;2022-12-18T09:06:43;-3.35;79.27
71082;SHT31;58740;50.672;18.690;2022-12-18T09:09:10;-3.33;78.86
71082;SHT31;58740;50.672;18.690;2022-12-18T09:11:38;-3.32;78.82
71082;SHT31;58740;50.672;18.690;2022-12-18T09:14:06;-3.27;79.00
71082;SHT31;58740;50.672;18.690;2022-12-18T09:16:34;-3.22;78.92
71082;SHT31;58740;50.672;18.690;2022-12-18T09:19:03;-3.19;78.80
71082;SHT31;58740;50.672;18.690;2022-12-18T09:21:33;-3.19;78.67
71082;SHT31;58740;50.672;18.690;2022-12-18T09:24:13;-3.18;78.57
71082;SHT31;58740;50.672;18.690;2022-12-18T09:26:42;-3.17;78.55
71082;SHT31;58740;50.672;18.690;2022-12-18T09:29:14;-3.18;78.50
71082;SHT31;58740;50.672;18.690;2022-12-18T09:31:45;-3.18;78.80
71082;SHT31;58740;50.672;18.690;2022-12-18T09:34:14;-3.18;78.61
71082;SHT31;58740;50.672;18.690;2022-12-18T09:36:42;-3.18;78.71
71082;SHT31;58740;50.672;18.690;2022-12-18T09:39:10;-3.18;78.82
71082;SHT31;58740;50.672;18.690;2022-12-18T09:41:40;-3.18;79.03
71082;SHT31;58740;50.672;18.690;2022-12-18T09:44:39;-3.22;78.48
71082;SHT31;58740;50.672;18.690;2022-12-18T09:47:18;-3.24;78.82
71082;SHT31;58740;50.672;18.690;2022-12-18T09:49:56;-3.20;79.20
71082;SHT31;58740;50.672;18.690;2022-12-18T09:52:37;-3.13;79.12
71082;SHT31;58740;50.672;18.690;2022-12-18T10:00:37;-3.02;78.71
71082;SHT31;58740;50.672;18.690;2022-12-18T10:03:11;-3.00;78.62
71082;SHT31;58740;50.672;18.690;2022-12-18T10:14:43;-3.02;78.40
71082;SHT31;58740;50.672;18.690;2022-12-18T10:23:24;-2.99;78.40
71082;SHT31;58740;50.672;18.690;2022-12-18T10:26:12;-2.97;78.51
71082;SHT31;58740;50.672;18.690;2022-12-18T10:28:41;-2.96;78.46
71082;SHT31;58740;50.672;18.690;2022-12-18T10:31:14;-2.93;78.49
71082;SHT31;58740;50.672;18.690;2022-12-18T10:33:46;-2.88;78.67
71082;SHT31;58740;50.672;18.690;2022-12-18T10:36:14;-2.82;78.49
71082;SHT31;58740;50.672;18.690;2022-12-18T10:38:42;-2.75;78.09
71082;SHT31;58740;50.672;18.690;2022-12-18T10:46:46;-2.57;77.95
71082;SHT31;58740;50.672;18.690;2022-12-18T10:49:28;-2.53;77.65
71082;SHT31;58740;50.672;18.690;2022-12-18T10:52:17;-2.47;77.67
71082;SHT31;58740;50.672;18.690;2022-12-18T10:54:53;-2.43;77.61
71082;SHT31;58740;50.672;18.690;2022-12-18T11:02:56;-2.66;76.78
71082;SHT31;58740;50.672;18.690;2022-12-18T11:05:26;-2.75;76.69
71082;SHT31;58740;50.672;18.690;2022-12-18T11:08:00;-2.81;77.06
71082;SHT31;58740;50.672;18.690;2022-12-18T11:10:33;-2.80;77.50
71082;SHT31;58740;50.672;18.690;2022-12-18T11:13:18;-2.77;77.76
71082;SHT31;58740;50.672;18.690;2022-12-18T11:15:50;-2.71;77.73
71082;SHT31;58740;50.672;18.690;2022-12-18T11:18:28;-2.69;77.36
71082;SHT31;58740;50.672;18.690;2022-12-18T11:23:49;-2.63;77.19
71082;SHT31;58740;50.672;18.690;2022-12-18T11:26:20;-2.64;76.93
71082;SHT31;58740;50.672;18.690;2022-12-18T11:29:09;-2.68;76.83
71082;SHT31;58740;50.672;18.690;2022-12-18T11:31:46;-2.71;76.88
71082;SHT31;58740;50.672;18.690;2022-12-18T11:36:59;-2.70;77.43
71082;SHT31;58740;50.672;18.690;2022-12-18T11:39:35;-2.68;77.42
71082;SHT31;58740;50.672;18.690;2022-12-18T11:42:25;-2.65;77.36
71082;SHT31;58740;50.672;18.690;2022-12-18T11:53:15;-2.56;77.25
71082;SHT31;58740;50.672;18.690;2022-12-18T11:59:03;-2.57;76.90
71082;SHT31;58740;50.672;18.690;2022-12-18T12:02:09;-2.59;76.80
71082;SHT31;58740;50.672;18.690;2022-12-18T12:05:02;-2.55;77.02
71082;SHT31;58740;50.672;18.690;2022-12-18T12:07:51;-2.52;77.20
71082;SHT31;58740;50.672;18.690;2022-12-18T12:21:52;-2.48;77.00
71082;SHT31;58740;50.672;18.690;2022-12-18T12:25:20;-2.48;76.86
71082;SHT31;58740;50.672;18.690;2022-12-18T12:27:52;-2.49;77.04
71082;SHT31;58740;50.672;18.690;2022-12-18T12:39:06;-2.59;76.67
71082;SHT31;58740;50.672;18.690;2022-12-18T12:41:42;-2.61;77.09
71082;SHT31;58740;50.672;18.690;2022-12-18T12:44:34;-2.60;77.04
71082;SHT31;58740;50.672;18.690;2022-12-18T12:47:19;-2.58;76.99
71082;SHT31;58740;50.672;18.690;2022-12-18T12:50:03;-2.57;77.01
71082;SHT31;58740;50.672;18.690;2022-12-18T12:52:44;-2.55;76.90
71082;SHT31;58740;50.672;18.690;2022-12-18T12:55:18;-2.55;77.10
71082;SHT31;58740;50.672;18.690;2022-12-18T12:58:04;-2.54;77.11
71082;SHT31;58740;50.672;18.690;2022-12-18T13:06:37;-2.57;77.45
71082;SHT31;58740;50.672;18.690;2022-12-18T13:09:32;-2.58;77.40
71082;SHT31;58740;50.672;18.690;2022-12-18T13:12:05;-2.60;77.41
71082;SHT31;58740;50.672;18.690;2022-12-18T13:15:20;-2.61;77.58
71082;SHT31;58740;50.672;18.690;2022-12-18T13:18:06;-2.62;77.38
71082;SHT31;58740;50.672;18.690;2022-12-18T13:21:01;-2.64;77.48
71082;SHT31;58740;50.672;18.690;2022-12-18T13:23:43;-2.65;77.49
71082;SHT31;58740;50.672;18.690;2022-12-18T13:28:54;-2.64;77.54
71082;SHT31;58740;50.672;18.690;2022-12-18T13:36:56;-2.64;77.58
71082;SHT31;58740;50.672;18.690;2022-12-18T13:39:59;-2.68;77.40
71082;SHT31;58740;50.672;18.690;2022-12-18T13:42:48;-2.69;77.57
71082;SHT31;58740;50.672;18.690;2022-12-18T13:45:40;-2.71;77.79
71082;SHT31;58740;50.672;18.690;2022-12-18T13:48:36;-2.72;77.81
71082;SHT31;58740;50.672;18.690;2022-12-18T13:51:06;-2.74;77.86
71082;SHT31;58740;50.672;18.690;2022-12-18T13:53:39;-2.79;77.77
71082;SHT31;58740;50.672;18.690;2022-12-18T13:56:16;-2.84;78.02
71082;SHT31;58740;50.672;18.690;2022-12-18T13:59:15;-2.84;78.21
71082;SHT31;58740;50.672;18.690;2022-12-18T14:04:45;-2.83;78.25
71082;SHT31;58740;50.672;18.690;2022-12-18T14:07:24;-2.83;78.27
71082;SHT31;58740;50.672;18.690;2022-12-18T14:10:01;-2.83;77.85
71082;SHT31;58740;50.672;18.690;2022-12-18T14:12:50;-2.86;77.12
71082;SHT31;58740;50.672;18.690;2022-12-18T14:15:31;-2.98;76.83
71082;SHT31;58740;50.672;18.690;2022-12-18T14:18:23;-3.09;76.77
71082;SHT31;58740;50.672;18.690;2022-12-18T14:21:03;-3.22;76.92
71082;SHT31;58740;50.672;18.690;2022-12-18T14:23:36;-3.29;77.09
71082;SHT31;58740;50.672;18.690;2022-12-18T14:28:57;-3.49;76.94
71082;SHT31;58740;50.672;18.690;2022-12-18T14:31:30;-3.55;76.92
71082;SHT31;58740;50.672;18.690;2022-12-18T14:33:59;-3.64;76.91
71082;SHT31;58740;50.672;18.690;2022-12-18T14:36:27;-3.74;76.98
71082;SHT31;58740;50.672;18.690;2022-12-18T14:38:57;-3.82;76.98
71082;SHT31;58740;50.672;18.690;2022-12-18T14:41:26;-3.89;77.03
71082;SHT31;58740;50.672;18.690;2022-12-18T14:43:56;-3.96;76.99
71082;SHT31;58740;50.672;18.690;2022-12-18T14:46:38;-4.07;76.81
71082;SHT31;58740;50.672;18.690;2022-12-18T14:49:30;-4.16;77.05
71082;SHT31;58740;50.672;18.690;2022-12-18T14:52:02;-4.22;76.82
71082;SHT31;58740;50.672;18.690;2022-12-18T14:54:41;-4.29;76.49
71082;SHT31;58740;50.672;18.690;2022-12-18T14:57:19;-4.33;76.72
71082;SHT31;58740;50.672;18.690;2022-12-18T14:59:51;-4.37;76.55
71082;SHT31;58740;50.672;18.690;2022-12-18T15:02:25;-4.42;76.34
71082;SHT31;58740;50.672;18.690;2022-12-18T15:07:48;-4.53;76.39
71082;SHT31;58740;50.672;18.690;2022-12-18T15:13:17;-4.66;75.84
71082;SHT31;58740;50.672;18.690;2022-12-18T15:15:49;-4.78;75.91
71082;SHT31;58740;50.672;18.690;2022-12-18T15:18:20;-4.85;75.80
71082;SHT31;58740;50.672;18.690;2022-12-18T15:20:59;-4.95;75.61
71082;SHT31;58740;50.672;18.690;2022-12-18T15:26:12;-5.12;75.52
71082;SHT31;58740;50.672;18.690;2022-12-18T15:28:47;-5.20;75.49
71082;SHT31;58740;50.672;18.690;2022-12-18T15:31:24;-5.31;75.09
71082;SHT31;58740;50.672;18.690;2022-12-18T15:34:10;-5.41;74.91
71082;SHT31;58740;50.672;18.690;2022-12-18T15:36:45;-5.47;75.33
71082;SHT31;58740;50.672;18.690;2022-12-18T15:39:13;-5.46;75.36
71082;SHT31;58740;50.672;18.690;2022-12-18T15:41:41;-5.45;75.03
71082;SHT31;58740;50.672;18.690;2022-12-18T15:44:28;-5.46;74.53
71082;SHT31;58740;50.672;18.690;2022-12-18T15:46:56;-5.54;74.13
71082;SHT31;58740;50.672;18.690;2022-12-18T15:49:25;-5.66;73.99
71082;SHT31;58740;50.672;18.690;2022-12-18T15:52:02;-5.68;74.26
71082;SHT31;58740;50.672;18.690;2022-12-18T15:54:30;-5.66;74.34
71082;SHT31;58740;50.672;18.690;2022-12-18T15:57:16;-5.64;74.05
71082;SHT31;58740;50.672;18.690;2022-12-18T15:59:54;-5.63;73.89
71082;SHT31;58740;50.672;18.690;2022-12-18T16:02:26;-5.61;73.66
71082;SHT31;58740;50.672;18.690;2022-12-18T16:04:56;-5.60;73.44
71082;SHT31;58740;50.672;18.690;2022-12-18T16:07:23;-5.58;73.12
71082;SHT31;58740;50.672;18.690;2022-12-18T16:09:56;-5.63;72.66
71082;SHT31;58740;50.672;18.690;2022-12-18T16:12:26;-5.70;72.72
71082;SHT31;58740;50.672;18.690;2022-12-18T16:14:54;-5.76;72.77
71082;SHT31;58740;50.672;18.690;2022-12-18T16:17:22;-5.83;72.58
71082;SHT31;58740;50.672;18.690;2022-12-18T16:19:50;-5.92;72.11
71082;SHT31;58740;50.672;18.690;2022-12-18T16:22:21;-6.07;71.81
71082;SHT31;58740;50.672;18.690;2022-12-18T16:24:53;-6.18;72.10
71082;SHT31;58740;50.672;18.690;2022-12-18T16:27:23;-6.32;71.91
71082;SHT31;58740;50.672;18.690;2022-12-18T16:29:51;-6.46;72.10
71082;SHT31;58740;50.672;18.690;2022-12-18T16:32:20;-6.59;72.00
71082;SHT31;58740;50.672;18.690;2022-12-18T16:34:50;-6.72;72.03
71082;SHT31;58740;50.672;18.690;2022-12-18T16:37:18;-6.75;72.48
71082;SHT31;58740;50.672;18.690;2022-12-18T16:39:46;-6.73;72.42
71082;SHT31;58740;50.672;18.690;2022-12-18T16:42:16;-6.79;71.86
71082;SHT31;58740;50.672;18.690;2022-12-18T16:44:47;-6.82;72.02
71082;SHT31;58740;50.672;18.690;2022-12-18T16:47:17;-6.80;72.12
71082;SHT31;58740;50.672;18.690;2022-12-18T16:49:45;-6.78;71.98
71082;SHT31;58740;50.672;18.690;2022-12-18T16:52:14;-6.79;72.23
71082;SHT31;58740;50.672;18.690;2022-12-18T16:54:42;-6.75;72.78
71082;SHT31;58740;50.672;18.690;2022-12-18T16:57:12;-6.66;73.36
71082;SHT31;58740;50.672;18.690;2022-12-18T16:59:42;-6.53;74.04
71082;SHT31;58740;50.672;18.690;2022-12-18T17:02:21;-6.34;75.98
71082;SHT31;58740;50.672;18.690;2022-12-18T17:04:55;-6.17;75.64
71082;SHT31;58740;50.672;18.690;2022-12-18T17:07:25;-6.09;75.22
71082;SHT31;58740;50.672;18.690;2022-12-18T17:09:54;-6.02;76.05
71082;SHT31;58740;50.672;18.690;2022-12-18T17:12:23;-5.95;76.48
71082;SHT31;58740;50.672;18.690;2022-12-18T17:14:51;-5.90;76.76
71082;SHT31;58740;50.672;18.690;2022-12-18T17:17:19;-5.87;77.31
71082;SHT31;58740;50.672;18.690;2022-12-18T17:19:49;-5.83;77.54
71082;SHT31;58740;50.672;18.690;2022-12-18T17:22:19;-5.82;77.52
71082;SHT31;58740;50.672;18.690;2022-12-18T17:24:49;-5.83;77.70
71082;SHT31;58740;50.672;18.690;2022-12-18T17:27:17;-5.82;77.83
71082;SHT31;58740;50.672;18.690;2022-12-18T17:29:45;-5.84;77.92
71082;SHT31;58740;50.672;18.690;2022-12-18T17:32:16;-5.85;78.12
71082;SHT31;58740;50.672;18.690;2022-12-18T17:34:44;-5.83;78.01
71082;SHT31;58740;50.672;18.690;2022-12-18T17:37:12;-5.82;78.05
71082;SHT31;58740;50.672;18.690;2022-12-18T17:39:41;-5.77;78.11
71082;SHT31;58740;50.672;18.690;2022-12-18T17:42:09;-5.70;77.95
71082;SHT31;58740;50.672;18.690;2022-12-18T17:44:42;-5.66;77.67
71082;SHT31;58740;50.672;18.690;2022-12-18T17:47:11;-5.60;77.48
71082;SHT31;58740;50.672;18.690;2022-12-18T17:49:40;-5.57;77.06
71082;SHT31;58740;50.672;18.690;2022-12-18T17:52:07;-5.55;76.49
71082;SHT31;58740;50.672;18.690;2022-12-18T17:54:36;-5.53;76.21
71082;SHT31;58740;50.672;18.690;2022-12-18T17:57:06;-5.55;75.51
71082;SHT31;58740;50.672;18.690;2022-12-18T17:59:34;-5.62;75.46
71082;SHT31;58740;50.672;18.690;2022-12-18T18:02:02;-5.66;75.33
71082;SHT31;58740;50.672;18.690;2022-12-18T18:04:31;-5.75;74.72
71082;SHT31;58740;50.672;18.690;2022-12-18T18:06:58;-5.81;74.69
71082;SHT31;58740;50.672;18.690;2022-12-18T18:09:26;-5.88;74.93
71082;SHT31;58740;50.672;18.690;2022-12-18T18:11:54;-5.91;76.02